createdAt,value
2019-05-30T00:00:36.918Z,99.90
2019-05-30T00:02:14.255Z,99.90
2019-05-30T00:03:50.722Z,99.90
2019-05-30T00:05:28.092Z,99.90
2019-05-30T00:07:04.965Z,99.90
2019-05-30T00:08:42.309Z,99.90
2019-05-30T00:10:19.014Z,99.90
2019-05-30T00:11:56.719Z,99.90
2019-05-30T00:13:33.286Z,99.90
2019-05-30T00:15:11.165Z,99.90
2019-05-30T00:16:47.756Z,99.90
2019-05-30T00:18:25.070Z,99.90
2019-05-30T00:20:03.164Z,99.90
2019-05-30T00:21:40.785Z,99.90
2019-05-30T00:23:17.338Z,99.90
2019-05-30T00:24:55.907Z,99.90
2019-05-30T00:26:32.546Z,99.90
2019-05-30T00:28:09.787Z,99.90
2019-05-30T00:29:46.168Z,99.90
2019-05-30T00:31:23.302Z,99.90
2019-05-30T00:33:00.707Z,99.90
2019-05-30T00:34:38.236Z,99.70
2019-05-30T00:36:14.672Z,99.90
2019-05-30T00:37:52.944Z,99.90
2019-05-30T00:39:29.472Z,99.90
2019-05-30T00:41:06.284Z,99.90
2019-05-30T00:42:42.896Z,99.80
2019-05-30T00:44:20.593Z,99.90
2019-05-30T00:45:57.936Z,99.90
2019-05-30T00:47:35.436Z,99.80
2019-05-30T00:49:12.483Z,99.40
2019-05-30T00:50:50.022Z,99.60
2019-05-30T00:52:26.582Z,99.90
2019-05-30T00:54:04.703Z,99.90
2019-05-30T00:55:41.195Z,99.90
2019-05-30T00:57:18.465Z,99.80
2019-05-30T00:58:55.015Z,99.90
2019-05-30T01:00:42.609Z,99.90
2019-05-30T01:02:11.086Z,99.90
2019-05-30T01:03:48.158Z,99.80
2019-05-30T01:05:27.212Z,99.90
2019-05-30T01:07:05.112Z,99.90
2019-05-30T01:08:41.652Z,99.80
2019-05-30T01:10:20.688Z,99.90
2019-05-30T01:11:57.068Z,99.50
2019-05-30T01:13:34.937Z,99.40
2019-05-30T01:15:13.042Z,99.80
2019-05-30T01:16:50.175Z,99.70
2019-05-30T01:18:27.007Z,99.80
2019-05-30T01:20:05.282Z,99.90
2019-05-30T01:21:42.201Z,99.70
2019-05-30T01:23:19.574Z,99.40
2019-05-30T01:24:57.109Z,99.70
2019-05-30T01:26:34.413Z,99.60
2019-05-30T01:28:11.009Z,99.60
2019-05-30T01:29:48.206Z,99.60
2019-05-30T01:31:24.723Z,99.20
2019-05-30T01:33:01.952Z,99.10
2019-05-30T01:34:38.246Z,99.10
2019-05-30T01:36:15.471Z,99.10
2019-05-30T01:37:52.278Z,99.00
2019-05-30T01:39:29.337Z,99.10
2019-05-30T01:41:06.022Z,99.20
2019-05-30T01:42:43.514Z,99.10
2019-05-30T01:44:20.029Z,99.00
2019-05-30T01:45:58.026Z,98.60
2019-05-30T01:47:34.490Z,98.40
2019-05-30T01:49:11.827Z,98.50
2019-05-30T01:50:48.103Z,98.60
2019-05-30T01:52:25.406Z,99.00
2019-05-30T01:54:02.571Z,99.10
2019-05-30T01:55:39.982Z,99.00
2019-05-30T01:57:17.487Z,99.40
2019-05-30T01:58:54.936Z,99.50
2019-05-30T02:00:41.733Z,99.80
2019-05-30T02:02:18.947Z,99.80
2019-05-30T02:03:55.870Z,99.90
2019-05-30T02:05:33.416Z,99.80
2019-05-30T02:07:09.857Z,99.90
2019-05-30T02:08:47.089Z,99.90
2019-05-30T02:10:23.599Z,99.90
2019-05-30T02:12:01.221Z,99.90
2019-05-30T02:13:37.882Z,99.90
2019-05-30T02:15:18.356Z,99.90
2019-05-30T02:16:54.714Z,99.70
2019-05-30T02:18:31.958Z,99.80
2019-05-30T02:20:10.164Z,99.90
2019-05-30T02:21:47.427Z,99.90
2019-05-30T02:23:23.943Z,99.50
2019-05-30T02:25:01.977Z,99.90
2019-05-30T02:26:38.717Z,99.90
2019-05-30T02:28:16.166Z,99.90
2019-05-30T02:29:52.912Z,99.90
2019-05-30T02:31:38.821Z,99.90
2019-05-30T02:33:11.848Z,99.80
2019-05-30T02:34:47.218Z,99.90
2019-05-30T02:36:23.658Z,99.90
2019-05-30T02:38:01.011Z,99.90
2019-05-30T02:39:37.583Z,99.80
2019-05-30T02:41:15.349Z,99.90
2019-05-30T02:42:51.973Z,99.90
2019-05-30T02:44:29.281Z,99.90
2019-05-30T02:46:07.402Z,99.90
2019-05-30T02:47:44.881Z,99.90
2019-05-30T02:49:21.331Z,99.90
2019-05-30T02:50:58.624Z,99.90
2019-05-30T02:52:35.283Z,99.90
2019-05-30T02:54:13.220Z,99.90
2019-05-30T02:55:49.739Z,99.90
2019-05-30T02:57:27.169Z,99.90
2019-05-30T02:59:05.951Z,99.90
2019-05-30T03:00:43.856Z,99.90
2019-05-30T03:02:22.548Z,99.90
2019-05-30T03:04:01.842Z,99.90
2019-05-30T03:05:39.043Z,99.90
2019-05-30T03:07:16.636Z,99.90
2019-05-30T03:08:53.472Z,99.90
2019-05-30T03:10:31.368Z,99.90
2019-05-30T03:12:11.068Z,99.90
2019-05-30T03:13:48.439Z,99.90
2019-05-30T03:15:25.333Z,99.90
2019-05-30T03:17:03.162Z,99.90
2019-05-30T03:18:40.762Z,99.90
2019-05-30T03:20:23.101Z,99.90
2019-05-30T03:21:57.915Z,99.90
2019-05-30T03:23:35.328Z,99.90
2019-05-30T03:25:15.737Z,99.90
2019-05-30T03:26:51.943Z,99.90
2019-05-30T03:28:29.443Z,99.90
2019-05-30T03:30:18.442Z,99.90
2019-05-30T03:31:49.734Z,99.90
2019-05-30T03:33:39.012Z,99.90
2019-05-30T03:35:17.578Z,99.90
2019-05-30T03:36:45.929Z,99.90
2019-05-30T03:38:22.525Z,99.90
2019-05-30T03:39:59.839Z,99.90
2019-05-30T03:41:36.824Z,99.90
2019-05-30T03:43:16.056Z,99.90
2019-05-30T03:44:53.248Z,99.90
2019-05-30T03:46:37.029Z,99.90
2019-05-30T03:48:17.326Z,99.90
2019-05-30T03:49:57.597Z,99.90
2019-05-30T03:51:35.491Z,99.90
2019-05-30T03:53:14.361Z,99.90
2019-05-30T03:54:52.784Z,99.90
2019-05-30T03:56:53.315Z,99.90
2019-05-30T03:58:49.313Z,99.90
2019-05-30T04:00:45.535Z,99.90
2019-05-30T04:02:56.123Z,99.90
2019-05-30T04:04:33.190Z,99.90
2019-05-30T04:06:31.657Z,99.90
2019-05-30T04:08:13.961Z,99.90
2019-05-30T04:09:55.399Z,99.90
2019-05-30T04:11:45.266Z,99.90
2019-05-30T04:13:50.507Z,99.90
2019-05-30T04:15:35.336Z,99.90
2019-05-30T04:17:13.696Z,99.90
2019-05-30T04:18:50.808Z,99.90
2019-05-30T04:20:28.132Z,99.90
2019-05-30T04:22:04.618Z,99.90
2019-05-30T04:23:42.027Z,99.90
2019-05-30T04:25:19.527Z,99.90
2019-05-30T04:26:56.889Z,99.90
2019-05-30T04:28:33.209Z,99.90
2019-05-30T04:30:11.901Z,99.90
2019-05-30T04:31:48.545Z,99.90
2019-05-30T04:33:32.906Z,99.90
2019-05-30T04:35:04.386Z,99.90
2019-05-30T04:36:41.669Z,99.90
2019-05-30T04:38:19.471Z,99.90
2019-05-30T04:39:57.935Z,99.90
2019-05-30T04:41:34.412Z,99.90
2019-05-30T04:43:13.101Z,99.90
2019-05-30T04:44:49.748Z,99.90
2019-05-30T04:46:27.185Z,99.90
2019-05-30T04:48:03.544Z,99.80
2019-05-30T04:49:41.014Z,99.80
2019-05-30T04:51:19.569Z,99.90
2019-05-30T04:52:56.078Z,99.90
2019-05-30T04:54:32.704Z,99.90
2019-05-30T04:56:10.357Z,99.60
2019-05-30T04:57:47.044Z,99.50
2019-05-30T04:59:24.508Z,99.30
2019-05-30T05:01:01.068Z,99.00
2019-05-30T05:02:38.405Z,99.50
2019-05-30T05:04:15.500Z,99.40
2019-05-30T05:05:53.492Z,99.00
2019-05-30T05:07:30.012Z,99.10
2019-05-30T05:09:09.140Z,99.00
2019-05-30T05:10:45.684Z,98.70
2019-05-30T05:12:23.533Z,97.60
2019-05-30T05:13:59.463Z,97.40
2019-05-30T05:15:36.710Z,96.60
2019-05-30T05:17:14.694Z,96.80
2019-05-30T05:18:52.202Z,96.80
2019-05-30T05:20:28.831Z,96.50
2019-05-30T05:22:06.212Z,96.40
2019-05-30T05:23:42.704Z,95.90
2019-05-30T05:25:20.015Z,96.10
2019-05-30T05:26:56.490Z,95.90
2019-05-30T05:28:33.809Z,95.70
2019-05-30T05:30:11.786Z,95.80
2019-05-30T05:31:49.002Z,95.30
2019-05-30T05:33:25.444Z,95.60
2019-05-30T05:35:02.594Z,95.10
2019-05-30T05:36:39.374Z,95.30
2019-05-30T05:38:18.036Z,95.40
2019-05-30T05:39:54.692Z,95.30
2019-05-30T05:41:32.008Z,95.00
2019-05-30T05:43:08.544Z,94.80
2019-05-30T05:44:45.831Z,94.70
2019-05-30T05:46:22.623Z,94.30
2019-05-30T05:48:00.974Z,93.30
2019-05-30T05:49:37.608Z,93.50
2019-05-30T05:51:16.571Z,92.60
2019-05-30T05:52:53.422Z,91.90
2019-05-30T05:54:31.177Z,91.50
2019-05-30T05:56:07.542Z,90.30
2019-05-30T05:57:44.794Z,86.50
2019-05-30T05:59:21.324Z,86.00
2019-05-30T06:00:58.573Z,85.50
2019-05-30T06:02:35.196Z,81.70
2019-05-30T06:04:13.783Z,81.50
2019-05-30T06:05:53.330Z,79.50
2019-05-30T06:07:29.263Z,78.40
2019-05-30T06:09:07.372Z,76.20
2019-05-30T06:10:45.533Z,77.00
2019-05-30T06:12:21.999Z,75.60
2019-05-30T06:13:58.685Z,73.70
2019-05-30T06:15:37.649Z,71.20
2019-05-30T06:17:15.420Z,71.90
2019-05-30T06:18:52.784Z,74.00
2019-05-30T06:20:30.170Z,76.20
2019-05-30T06:22:06.770Z,77.40
2019-05-30T06:23:45.868Z,76.60
2019-05-30T06:25:24.625Z,77.00
2019-05-30T06:27:02.136Z,77.60
2019-05-30T06:28:38.677Z,76.20
2019-05-30T06:30:16.499Z,69.30
2019-05-30T06:31:52.366Z,67.20
2019-05-30T06:33:29.728Z,68.50
2019-05-30T06:35:10.185Z,70.40
2019-05-30T06:36:47.330Z,67.00
2019-05-30T06:38:23.862Z,64.50
2019-05-30T06:40:01.098Z,60.80
2019-05-30T06:41:37.801Z,57.50
2019-05-30T06:43:15.699Z,55.10
2019-05-30T06:44:52.509Z,56.30
2019-05-30T06:46:30.659Z,58.10
2019-05-30T06:48:07.861Z,60.20
2019-05-30T06:49:46.073Z,63.90
2019-05-30T06:51:22.807Z,66.60
2019-05-30T06:53:00.103Z,68.20
2019-05-30T06:54:36.537Z,59.50
2019-05-30T06:56:15.478Z,58.70
2019-05-30T06:57:51.985Z,62.90
2019-05-30T06:59:31.723Z,61.00
2019-05-30T07:01:07.824Z,59.10
2019-05-30T07:02:45.064Z,59.90
2019-05-30T07:04:23.041Z,61.10
2019-05-30T07:06:02.012Z,63.30
2019-05-30T07:07:38.841Z,60.70
2019-05-30T07:09:16.824Z,57.60
2019-05-30T07:10:54.074Z,60.30
2019-05-30T07:12:31.363Z,59.60
2019-05-30T07:14:08.853Z,58.20
2019-05-30T07:15:46.472Z,59.00
2019-05-30T07:17:23.242Z,55.20
2019-05-30T07:19:00.985Z,57.40
2019-05-30T07:20:37.683Z,57.10
2019-05-30T07:22:15.099Z,54.90
2019-05-30T07:23:51.633Z,54.10
2019-05-30T07:25:29.891Z,52.80
2019-05-30T07:27:07.183Z,51.90
2019-05-30T07:28:44.776Z,52.90
2019-05-30T07:30:23.789Z,51.50
2019-05-30T07:32:01.629Z,53.30
2019-05-30T07:33:38.087Z,55.20
2019-05-30T07:35:16.695Z,56.20
2019-05-30T07:36:53.858Z,54.80
2019-05-30T07:38:32.527Z,57.10
2019-05-30T07:40:12.994Z,56.30
2019-05-30T07:42:05.324Z,56.10
2019-05-30T07:43:30.298Z,55.90
2019-05-30T07:45:10.959Z,56.10
2019-05-30T07:46:48.820Z,54.90
2019-05-30T07:48:26.035Z,53.70
2019-05-30T07:50:03.677Z,54.00
2019-05-30T07:51:42.181Z,54.60
2019-05-30T07:53:19.935Z,54.90
2019-05-30T07:54:56.471Z,53.30
2019-05-30T07:56:35.084Z,52.80
2019-05-30T07:58:11.672Z,53.30
2019-05-30T07:59:49.187Z,53.40
2019-05-30T08:01:26.361Z,52.70
2019-05-30T08:03:03.746Z,50.50
2019-05-30T08:04:40.442Z,54.70
2019-05-30T08:06:17.788Z,52.40
2019-05-30T08:07:55.732Z,52.10
2019-05-30T08:09:33.087Z,53.10
2019-05-30T08:11:10.326Z,49.90
2019-05-30T08:12:47.802Z,48.90
2019-05-30T08:14:24.192Z,46.00
2019-05-30T08:16:01.486Z,47.80
2019-05-30T08:17:38.096Z,47.40
2019-05-30T08:19:15.930Z,47.60
2019-05-30T08:20:53.291Z,49.30
2019-05-30T08:22:30.495Z,48.90
2019-05-30T08:24:07.298Z,49.20
2019-05-30T08:25:44.542Z,45.60
2019-05-30T08:27:21.044Z,45.80
2019-05-30T08:28:58.607Z,47.50
2019-05-30T08:30:36.635Z,51.10
2019-05-30T08:32:14.750Z,48.10
2019-05-30T08:33:51.673Z,49.70
2019-05-30T08:35:39.124Z,45.80
2019-05-30T08:37:07.462Z,44.70
2019-05-30T08:38:48.236Z,45.10
2019-05-30T08:40:25.037Z,46.10
2019-05-30T08:42:02.507Z,46.20
2019-05-30T08:43:39.709Z,45.70
2019-05-30T08:45:20.127Z,48.40
2019-05-30T08:46:56.839Z,43.00
2019-05-30T08:48:34.548Z,43.90
2019-05-30T08:50:13.125Z,45.80
2019-05-30T08:51:49.519Z,44.50
2019-05-30T08:53:26.771Z,43.60
2019-05-30T08:55:03.874Z,44.70
2019-05-30T08:56:41.693Z,42.80
2019-05-30T08:58:18.264Z,45.80
2019-05-30T08:59:55.660Z,47.60
2019-05-30T09:01:32.047Z,49.30
2019-05-30T09:03:09.425Z,49.40
2019-05-30T09:04:46.066Z,49.80
2019-05-30T09:06:23.389Z,50.90
2019-05-30T09:07:59.886Z,50.20
2019-05-30T09:09:38.193Z,49.90
2019-05-30T09:11:14.685Z,48.90
2019-05-30T09:12:52.004Z,50.40
2019-05-30T09:14:28.469Z,49.40
2019-05-30T09:16:05.875Z,50.90
2019-05-30T09:17:43.125Z,51.00
2019-05-30T09:19:21.659Z,51.30
2019-05-30T09:20:58.313Z,48.10
2019-05-30T09:22:35.644Z,50.00
2019-05-30T09:24:12.229Z,49.70
2019-05-30T09:25:49.572Z,50.70
2019-05-30T09:27:26.426Z,50.90
2019-05-30T09:29:03.986Z,49.90
2019-05-30T09:30:41.559Z,47.30
2019-05-30T09:32:19.382Z,46.20
2019-05-30T09:33:55.970Z,45.50
2019-05-30T09:35:33.473Z,44.70
2019-05-30T09:37:10.069Z,46.90
2019-05-30T09:38:47.522Z,44.60
2019-05-30T09:40:24.972Z,43.90
2019-05-30T09:42:02.115Z,44.20
2019-05-30T09:43:39.896Z,45.80
2019-05-30T09:45:19.302Z,45.80
2019-05-30T09:46:57.920Z,47.60
2019-05-30T09:48:34.418Z,45.00
2019-05-30T09:50:14.985Z,44.90
2019-05-30T09:51:51.563Z,45.20
2019-05-30T09:53:29.410Z,46.40
2019-05-30T09:55:11.233Z,43.20
2019-05-30T09:56:48.588Z,45.40
2019-05-30T09:58:25.206Z,43.90
2019-05-30T10:00:02.587Z,43.60
2019-05-30T10:01:39.100Z,47.60
2019-05-30T10:03:17.434Z,47.10
2019-05-30T10:04:53.984Z,46.00
2019-05-30T10:06:31.342Z,48.10
2019-05-30T10:08:08.717Z,46.90
2019-05-30T10:09:47.036Z,48.40
2019-05-30T10:11:23.916Z,48.80
2019-05-30T10:13:01.281Z,48.60
2019-05-30T10:14:37.795Z,47.40
2019-05-30T10:16:15.183Z,47.40
2019-05-30T10:17:54.604Z,48.30
2019-05-30T10:19:32.049Z,47.50
2019-05-30T10:21:08.650Z,48.10
2019-05-30T10:22:47.105Z,47.60
2019-05-30T10:24:24.086Z,47.30
2019-05-30T10:26:01.394Z,48.60
2019-05-30T10:27:38.006Z,48.80
2019-05-30T10:29:15.364Z,50.10
2019-05-30T10:30:56.973Z,50.30
2019-05-30T10:32:31.938Z,52.30
2019-05-30T10:34:08.635Z,50.50
2019-05-30T10:35:47.344Z,49.70
2019-05-30T10:37:24.528Z,50.00
2019-05-30T10:39:02.017Z,48.80
2019-05-30T10:40:38.807Z,49.40
2019-05-30T10:42:15.966Z,51.80
2019-05-30T10:43:53.092Z,50.50
2019-05-30T10:45:30.920Z,52.00
2019-05-30T10:47:07.532Z,52.10
2019-05-30T10:48:47.252Z,51.40
2019-05-30T10:50:23.562Z,48.00
2019-05-30T10:52:00.875Z,52.20
2019-05-30T10:53:39.075Z,52.00
2019-05-30T10:55:18.067Z,47.80
2019-05-30T10:56:55.654Z,50.40
2019-05-30T10:58:33.087Z,51.90
2019-05-30T11:00:14.005Z,51.20
2019-05-30T11:01:52.883Z,51.10
2019-05-30T11:03:30.270Z,53.00
2019-05-30T11:05:11.836Z,52.90
2019-05-30T11:07:07.618Z,54.60
2019-05-30T11:08:34.340Z,52.00
2019-05-30T11:10:36.708Z,50.90
2019-05-30T11:12:14.017Z,48.50
2019-05-30T11:13:51.490Z,46.50
2019-05-30T11:15:29.705Z,48.80
2019-05-30T11:17:06.303Z,48.30
2019-05-30T11:18:44.012Z,51.30
2019-05-30T11:20:22.213Z,49.30
2019-05-30T11:21:59.438Z,51.10
2019-05-30T11:23:35.967Z,50.90
2019-05-30T11:25:13.351Z,52.20
2019-05-30T11:26:52.052Z,53.40
2019-05-30T11:28:29.891Z,50.80
2019-05-30T11:30:10.082Z,48.90
2019-05-30T11:31:47.291Z,48.80
2019-05-30T11:33:24.963Z,49.00
2019-05-30T11:35:02.045Z,51.80
2019-05-30T11:36:38.525Z,49.50
2019-05-30T11:38:16.010Z,48.60
2019-05-30T11:39:53.279Z,50.40
2019-05-30T11:41:30.550Z,48.80
2019-05-30T11:43:06.980Z,48.20
2019-05-30T11:44:44.299Z,49.00
2019-05-30T11:46:21.468Z,49.50
2019-05-30T11:47:59.923Z,48.60
2019-05-30T11:49:36.558Z,49.20
2019-05-30T11:51:14.550Z,50.40
2019-05-30T11:52:51.701Z,49.80
2019-05-30T11:54:29.176Z,51.50
2019-05-30T11:56:05.613Z,50.70
2019-05-30T11:57:42.937Z,50.70
2019-05-30T11:59:19.644Z,52.00
2019-05-30T12:00:58.308Z,51.00
2019-05-30T12:02:35.154Z,52.10
2019-05-30T12:04:12.538Z,53.50
2019-05-30T12:05:50.251Z,50.90
2019-05-30T12:07:36.501Z,53.30
2019-05-30T12:09:14.096Z,53.50
2019-05-30T12:10:52.968Z,52.00
2019-05-30T12:12:29.580Z,54.60
2019-05-30T12:14:07.171Z,54.80
2019-05-30T12:15:44.177Z,52.40
2019-05-30T12:17:21.490Z,49.80
2019-05-30T12:18:59.623Z,50.00
2019-05-30T12:20:36.937Z,51.40
2019-05-30T12:22:13.302Z,51.10
2019-05-30T12:23:51.825Z,49.90
2019-05-30T12:25:28.565Z,52.70
2019-05-30T12:27:06.231Z,52.10
2019-05-30T12:28:42.758Z,52.60
2019-05-30T12:30:22.525Z,53.90
2019-05-30T12:32:00.661Z,55.10
2019-05-30T12:33:38.023Z,53.70
2019-05-30T12:35:15.436Z,55.20
2019-05-30T12:36:52.827Z,55.10
2019-05-30T12:38:29.279Z,53.40
2019-05-30T12:40:11.308Z,53.00
2019-05-30T12:41:49.524Z,53.30
2019-05-30T12:43:25.922Z,51.80
2019-05-30T12:45:06.850Z,53.10
2019-05-30T12:46:41.581Z,53.50
2019-05-30T12:48:19.031Z,52.60
2019-05-30T12:49:55.658Z,53.80
2019-05-30T12:51:33.944Z,52.90
2019-05-30T12:53:10.401Z,54.30
2019-05-30T12:54:47.746Z,54.20
2019-05-30T12:56:24.872Z,53.10
2019-05-30T12:58:02.888Z,54.10
2019-05-30T12:59:40.544Z,54.10
2019-05-30T13:01:18.778Z,53.00
2019-05-30T13:02:55.279Z,54.80
2019-05-30T13:04:32.523Z,55.60
2019-05-30T13:06:10.537Z,56.50
2019-05-30T13:07:48.338Z,57.90
2019-05-30T13:09:24.939Z,59.60
2019-05-30T13:11:03.690Z,59.00
2019-05-30T13:12:40.265Z,57.70
2019-05-30T13:14:17.484Z,55.30
2019-05-30T13:15:56.902Z,56.80
2019-05-30T13:17:34.973Z,59.30
2019-05-30T13:19:12.458Z,56.90
2019-05-30T13:20:50.138Z,58.40
2019-05-30T13:22:27.253Z,61.80
2019-05-30T13:24:06.032Z,60.20
2019-05-30T13:25:42.735Z,59.80
2019-05-30T13:27:20.401Z,60.00
2019-05-30T13:28:57.996Z,62.30
2019-05-30T13:30:35.880Z,62.60
2019-05-30T13:32:12.439Z,64.10
2019-05-30T13:33:50.222Z,63.40
2019-05-30T13:35:26.833Z,63.20
2019-05-30T13:37:05.071Z,64.60
2019-05-30T13:38:42.002Z,66.10
2019-05-30T13:40:25.494Z,68.40
2019-05-30T13:41:59.783Z,67.50
2019-05-30T13:43:37.316Z,69.90
2019-05-30T13:45:14.709Z,71.00
2019-05-30T13:46:51.911Z,71.20
2019-05-30T13:48:28.767Z,70.80
2019-05-30T13:50:13.467Z,70.20
2019-05-30T13:51:49.287Z,70.40
2019-05-30T13:53:26.137Z,71.70
2019-05-30T13:55:05.331Z,72.60
2019-05-30T13:56:41.988Z,72.60
2019-05-30T13:58:19.906Z,71.70
2019-05-30T13:59:56.709Z,73.30
2019-05-30T14:01:34.497Z,70.50
2019-05-30T14:03:10.935Z,72.10
2019-05-30T14:04:48.379Z,74.00
2019-05-30T14:06:24.981Z,76.40
2019-05-30T14:08:02.787Z,76.90
2019-05-30T14:09:39.773Z,77.30
2019-05-30T14:11:17.097Z,76.90
2019-05-30T14:12:54.276Z,76.30
2019-05-30T14:14:31.961Z,79.70
2019-05-30T14:16:09.033Z,76.90
2019-05-30T14:17:47.094Z,78.50
2019-05-30T14:19:25.189Z,79.00
2019-05-30T14:21:03.575Z,77.40
2019-05-30T14:22:40.803Z,76.40
2019-05-30T14:24:18.118Z,74.20
2019-05-30T14:25:54.659Z,74.80
2019-05-30T14:27:32.948Z,75.40
2019-05-30T14:29:09.843Z,74.90
2019-05-30T14:30:49.607Z,75.40
2019-05-30T14:32:25.720Z,75.80
2019-05-30T14:34:04.256Z,74.30
2019-05-30T14:35:41.722Z,72.50
2019-05-30T14:37:19.355Z,72.10
2019-05-30T14:38:58.819Z,73.00
2019-05-30T14:40:35.299Z,73.80
2019-05-30T14:42:13.184Z,71.20
2019-05-30T14:43:51.234Z,70.20
2019-05-30T14:45:28.286Z,72.70
2019-05-30T14:47:06.374Z,71.00
2019-05-30T14:48:43.157Z,73.70
2019-05-30T14:50:20.932Z,71.50
2019-05-30T14:51:57.549Z,71.80
2019-05-30T14:53:34.893Z,71.40
2019-05-30T14:55:13.323Z,70.70
2019-05-30T14:56:50.777Z,74.20
2019-05-30T14:58:27.669Z,72.10
2019-05-30T15:00:09.491Z,71.60
2019-05-30T15:01:47.486Z,72.60
2019-05-30T15:03:24.278Z,71.60
2019-05-30T15:05:01.538Z,70.10
2019-05-30T15:06:38.466Z,67.20
2019-05-30T15:08:16.792Z,68.30
2019-05-30T15:09:53.861Z,68.60
2019-05-30T15:11:31.362Z,70.00
2019-05-30T15:13:08.093Z,74.50
2019-05-30T15:14:45.344Z,71.30
2019-05-30T15:16:24.841Z,70.00
2019-05-30T15:18:02.287Z,70.50
2019-05-30T15:19:39.252Z,70.10
2019-05-30T15:21:16.687Z,70.10
2019-05-30T15:22:53.869Z,71.10
2019-05-30T15:24:31.495Z,72.30
2019-05-30T15:26:08.208Z,70.50
2019-05-30T15:27:48.419Z,70.50
2019-05-30T15:29:26.723Z,72.00
2019-05-30T15:31:03.872Z,69.70
2019-05-30T15:32:41.098Z,69.60
2019-05-30T15:34:18.536Z,70.80
2019-05-30T15:35:54.824Z,72.00
2019-05-30T15:37:32.136Z,72.60
2019-05-30T15:39:10.833Z,71.20
2019-05-30T15:40:48.360Z,71.80
2019-05-30T15:42:24.764Z,72.70
2019-05-30T15:44:02.087Z,74.70
2019-05-30T15:45:38.996Z,74.70
2019-05-30T15:47:18.355Z,75.20
2019-05-30T15:48:55.099Z,76.10
2019-05-30T15:50:32.549Z,76.70
2019-05-30T15:52:09.110Z,78.20
2019-05-30T15:53:46.597Z,78.50
2019-05-30T15:55:23.373Z,81.50
2019-05-30T15:57:00.798Z,80.60
2019-05-30T15:58:37.291Z,80.60
2019-05-30T16:00:16.228Z,82.50
2019-05-30T16:01:53.252Z,83.30
2019-05-30T16:03:30.514Z,86.10
2019-05-30T16:05:10.497Z,86.80
2019-05-30T16:06:47.771Z,89.50
2019-05-30T16:08:24.253Z,90.60
2019-05-30T16:10:01.581Z,90.70
2019-05-30T16:11:38.048Z,91.30
2019-05-30T16:13:15.369Z,88.80
2019-05-30T16:14:52.319Z,90.20
2019-05-30T16:16:39.493Z,90.10
2019-05-30T16:18:07.778Z,90.40
2019-05-30T16:19:45.658Z,90.70
2019-05-30T16:21:22.594Z,91.00
2019-05-30T16:22:59.264Z,91.90
2019-05-30T16:24:35.849Z,91.70
2019-05-30T16:26:14.012Z,92.00
2019-05-30T16:27:50.481Z,91.90
2019-05-30T16:29:27.965Z,92.70
2019-05-30T16:31:04.869Z,92.50
2019-05-30T16:32:42.106Z,92.70
2019-05-30T16:34:20.173Z,93.00
2019-05-30T16:35:57.343Z,93.50
2019-05-30T16:37:33.881Z,94.10
2019-05-30T16:39:11.362Z,93.80
2019-05-30T16:40:47.839Z,94.30
2019-05-30T16:42:26.448Z,94.30
2019-05-30T16:44:03.599Z,94.20
2019-05-30T16:45:40.912Z,94.00
2019-05-30T16:47:20.379Z,94.20
2019-05-30T16:48:58.395Z,94.40
2019-05-30T16:50:34.965Z,93.80
2019-05-30T16:52:12.248Z,94.50
2019-05-30T16:53:48.818Z,93.60
2019-05-30T16:55:27.592Z,94.10
2019-05-30T16:57:04.245Z,94.70
2019-05-30T16:58:41.500Z,94.00
2019-05-30T17:00:21.878Z,94.30
2019-05-30T17:01:59.710Z,95.10
2019-05-30T17:03:36.337Z,94.80
2019-05-30T17:05:14.320Z,95.00
2019-05-30T17:06:50.679Z,95.60
2019-05-30T17:08:28.321Z,95.60
2019-05-30T17:10:21.333Z,94.80
2019-05-30T17:11:46.949Z,94.60
2019-05-30T17:13:23.934Z,95.00
2019-05-30T17:15:01.339Z,95.10
2019-05-30T17:16:37.807Z,95.90
2019-05-30T17:18:16.017Z,96.20
2019-05-30T17:19:51.917Z,96.50
2019-05-30T17:21:30.113Z,96.10
2019-05-30T17:23:06.163Z,96.70
2019-05-30T17:24:45.794Z,96.30
2019-05-30T17:26:23.328Z,95.70
2019-05-30T17:28:00.584Z,95.80
2019-05-30T17:29:37.047Z,96.50
2019-05-30T17:31:14.872Z,96.80
2019-05-30T17:32:51.342Z,97.00
2019-05-30T17:34:28.589Z,97.40
2019-05-30T17:36:05.972Z,97.00
2019-05-30T17:37:43.199Z,97.30
2019-05-30T17:39:20.441Z,96.80
2019-05-30T17:40:57.731Z,97.10
2019-05-30T17:42:34.470Z,97.00
2019-05-30T17:44:12.871Z,97.50
2019-05-30T17:45:53.359Z,97.70
2019-05-30T17:47:31.347Z,97.70
2019-05-30T17:49:07.874Z,98.10
2019-05-30T17:50:46.648Z,97.80
2019-05-30T17:52:23.759Z,97.80
2019-05-30T17:54:02.108Z,98.40
2019-05-30T17:55:38.678Z,98.80
2019-05-30T17:57:16.787Z,98.90
2019-05-30T17:58:53.639Z,99.20
2019-05-30T18:00:31.329Z,99.10
2019-05-30T18:02:12.179Z,99.10
2019-05-30T18:03:49.407Z,99.50
2019-05-30T18:05:26.730Z,99.90
2019-05-30T18:07:03.959Z,99.90
2019-05-30T18:08:40.525Z,99.90
2019-05-30T18:10:18.908Z,99.90
2019-05-30T18:11:55.816Z,99.90
2019-05-30T18:13:33.138Z,99.90
2019-05-30T18:15:12.943Z,99.90
2019-05-30T18:16:52.969Z,99.90
2019-05-30T18:18:31.396Z,99.90
2019-05-30T18:20:12.163Z,99.90
2019-05-30T18:21:49.481Z,99.60
2019-05-30T18:23:26.012Z,99.40
2019-05-30T18:25:04.461Z,98.70
2019-05-30T18:26:41.113Z,98.90
2019-05-30T18:28:18.379Z,97.90
2019-05-30T18:29:55.079Z,97.70
2019-05-30T18:31:32.413Z,97.20
2019-05-30T18:33:09.027Z,97.10
2019-05-30T18:34:46.254Z,97.00
2019-05-30T18:36:22.625Z,97.20
2019-05-30T18:38:01.845Z,97.50
2019-05-30T18:39:38.876Z,97.10
2019-05-30T18:41:16.631Z,96.90
2019-05-30T18:42:54.242Z,96.80
2019-05-30T18:44:32.896Z,96.20
2019-05-30T18:46:10.702Z,96.10
2019-05-30T18:47:47.839Z,96.20
2019-05-30T18:49:24.999Z,95.80
2019-05-30T18:51:02.706Z,95.70
2019-05-30T18:52:41.779Z,95.20
2019-05-30T18:54:19.086Z,95.30
2019-05-30T18:55:55.475Z,95.00
2019-05-30T18:57:33.018Z,94.90
2019-05-30T18:59:09.799Z,94.80
2019-05-30T19:00:47.081Z,94.80
2019-05-30T19:02:23.702Z,95.30
2019-05-30T19:04:02.148Z,96.30
2019-05-30T19:05:38.657Z,97.20
2019-05-30T19:07:16.859Z,98.20
2019-05-30T19:08:53.803Z,99.20
2019-05-30T19:10:32.179Z,99.90
2019-05-30T19:12:09.732Z,99.90
2019-05-30T19:13:47.148Z,99.90
2019-05-30T19:15:27.131Z,99.90
2019-05-30T19:17:02.951Z,99.90
2019-05-30T19:18:39.546Z,99.90
2019-05-30T19:20:19.042Z,99.90
2019-05-30T19:21:55.561Z,98.20
2019-05-30T19:23:34.177Z,98.70
2019-05-30T19:25:11.312Z,98.50
2019-05-30T19:26:48.601Z,98.50
2019-05-30T19:28:26.375Z,97.40
2019-05-30T19:30:03.765Z,97.60
2019-05-30T19:31:40.615Z,97.50
2019-05-30T19:33:20.661Z,97.40
2019-05-30T19:34:57.093Z,97.30
2019-05-30T19:36:35.192Z,97.20
2019-05-30T19:38:12.195Z,97.20
2019-05-30T19:39:49.521Z,97.10
2019-05-30T19:41:27.347Z,96.30
2019-05-30T19:43:05.760Z,96.10
2019-05-30T19:44:42.392Z,95.70
2019-05-30T19:46:20.179Z,95.20
2019-05-30T19:47:56.651Z,95.00
2019-05-30T19:49:34.868Z,95.10
2019-05-30T19:51:11.715Z,95.10
2019-05-30T19:52:48.964Z,94.80
2019-05-30T19:54:25.495Z,94.60
2019-05-30T19:56:02.756Z,93.90
2019-05-30T19:57:39.934Z,93.90
2019-05-30T19:59:17.353Z,93.90
2019-05-30T20:00:58.922Z,93.80
2019-05-30T20:02:33.953Z,92.90
2019-05-30T20:04:10.626Z,93.40
2019-05-30T20:05:48.267Z,92.80
2019-05-30T20:07:25.217Z,92.50
2019-05-30T20:09:02.390Z,92.90
2019-05-30T20:10:39.283Z,92.60
2019-05-30T20:12:16.559Z,92.60
2019-05-30T20:13:53.321Z,91.60
2019-05-30T20:15:31.731Z,91.70
2019-05-30T20:17:08.417Z,91.10
2019-05-30T20:18:45.794Z,91.10
2019-05-30T20:20:23.914Z,91.70
2019-05-30T20:22:02.146Z,91.20
2019-05-30T20:23:49.480Z,91.30
2019-05-30T20:25:19.326Z,90.90
2019-05-30T20:26:56.590Z,95.40
2019-05-30T20:28:34.717Z,96.70
2019-05-30T20:30:14.041Z,96.10
2019-05-30T20:31:50.449Z,97.20
2019-05-30T20:33:27.554Z,99.10
2019-05-30T20:35:05.443Z,99.80
2019-05-30T20:36:42.775Z,99.90
2019-05-30T20:38:18.766Z,99.90
2019-05-30T20:39:56.284Z,99.90
2019-05-30T20:41:34.745Z,99.90
2019-05-30T20:43:12.247Z,99.90
2019-05-30T20:44:48.802Z,99.90
2019-05-30T20:46:26.080Z,99.90
2019-05-30T20:48:02.555Z,99.90
2019-05-30T20:49:39.677Z,99.90
2019-05-30T20:51:21.193Z,99.90
2019-05-30T20:52:55.407Z,99.60
2019-05-30T20:54:32.469Z,97.90
2019-05-30T20:56:09.809Z,98.80
2019-05-30T20:57:47.027Z,99.00
2019-05-30T20:59:25.415Z,97.70